Latest Weather Observations for Cobar Airport

IDN60801

Issued at 7:35 pm EST Monday 22 September 2014 (issued every 30 minutes, with the page automatically refreshed every 10 minutes)

About weather observations | Map of weather stations | Latest weather observations for NSW | Other Formats
Station Details ID: 048237 Name: COBAR AIRPORT AWS Lat: -31.54 Lon: 145.80 Height: 218.0 m
Data from the previous 72 hours. | See also: Recent months for locations in New South Wales
Date/Time
EST
Temp
°C
App
Temp
°C
Dew
Point
Rel
Hum
%
Delta-T
°C
Wind Press
QNH
hPa
Press
MSL
hPa
Rain
since 9 am
mm
Dir
 
Spd
km/h
Gust
km/h
Spd
kts
Gust
kts
22/07:30pm 19.0 15.2 5.8 42 6.5 NE 15 20 8 11 1026.8 1026.6 0.0
22/07:00pm 19.4 15.5 5.5 40 6.9 ENE 15 20 8 11 1026.4 1026.2 0.0
22/06:30pm 20.0 15.6 4.9 37 7.4 NE 17 22 9 12 1025.9 1025.6 0.0
22/06:00pm 20.8 16.4 4.8 35 7.9 NE 17 24 9 13 1025.5 1025.2 0.0
22/05:30pm 21.3 16.3 4.8 34 8.2 ENE 20 32 11 17 1025.1 1024.8 0.0
22/05:00pm 21.9 17.0 5.3 34 8.3 ENE 20 32 11 17 1024.9 1024.6 0.0
22/04:30pm 22.3 17.5 4.4 31 8.9 ENE 19 26 10 14 1024.7 1024.4 0.0
22/04:00pm 22.5 17.3 3.6 29 9.2 NNE 20 30 11 16 1024.5 1024.2 0.0
22/03:30pm 23.0 18.0 4.5 30 9.2 NNE 20 32 11 17 1024.6 1024.3 0.0
22/03:00pm 22.1 18.3 3.7 30 8.9 N 13 17 7 9 1024.9 1024.6 0.0
22/02:30pm 22.1 17.0 4.2 31 8.8 NE 20 30 11 16 1025.3 1025.0 0.0
22/02:00pm 22.5 18.1 4.5 31 8.9 NE 17 28 9 15 1025.5 1025.2 0.0
22/01:30pm 22.8 18.7 4.3 30 9.2 NE 15 20 8 11 1025.8 1025.5 0.0
22/01:00pm 22.5 18.1 4.5 31 8.9 ENE 17 28 9 15 1026.3 1026.1 0.0
22/12:30pm 22.5 17.7 5.4 33 8.6 NNE 20 33 11 18 1026.9 1026.7 0.0
22/12:00pm 21.5 16.6 5.0 34 8.2 NNE 20 32 11 17 1027.5 1027.3 0.0
22/11:30am 21.2 17.0 5.9 37 7.7 NE 17 28 9 15 1028.1 1027.9 0.0
22/11:00am 20.4 16.7 6.4 40 7.1 NNE 15 28 8 15 1028.6 1028.4 0.0
22/10:30am 19.9 15.7 5.9 40 7.0 NNE 17 28 9 15 1028.7 1028.5 0.0
22/10:00am 19.9 14.9 6.3 41 6.8 NNE 22 32 12 17 1028.9 1028.7 0.0
22/09:30am 19.0 14.0 6.5 44 6.3 NNE 22 37 12 20 1029.2 1028.9 0.0
22/09:00am 17.6 13.4 3.9 40 6.4 ENE 15 19 8 10 1029.3 1029.0 0.0
22/08:30am 16.2 11.6 3.6 43 5.9 NE 17 22 9 12 1029.3 1029.0 0.0
22/08:00am 15.1 10.5 3.6 46 5.3 ENE 17 22 9 12 1028.8 1028.6 0.0
22/07:30am 13.6 8.6 3.4 50 4.6 E 19 26 10 14 1028.3 1028.1 0.0
22/07:00am 12.7 8.7 2.8 51 4.4 E 13 19 7 10 1027.9 1027.7 0.0
22/06:30am 11.9 7.8 2.4 52 4.2 E 13 20 7 11 1027.5 1027.3 0.0
22/06:00am 12.0 7.2 2.5 52 4.1 E 17 20 9 11 1027.1 1026.9 0.0
22/05:30am 12.1 8.0 2.0 50 4.4 E 13 19 7 10 1026.8 1026.6 0.0
22/05:00am 12.5 8.3 1.8 48 4.6 E 13 19 7 10 1026.7 1026.5 0.0
22/04:30am 13.1 8.5 1.8 46 4.9 E 15 22 8 12 1026.4 1026.2 0.0
22/04:00am 13.4 8.8 1.7 45 5.1 ESE 15 20 8 11 1025.9 1025.6 0.0
22/03:30am 13.2 9.3 1.2 44 5.2 ESE 11 17 6 9 1025.8 1025.5 0.0
22/03:00am 13.7 9.1 1.4 43 5.3 E 15 20 8 11 1025.8 1025.5 0.0
22/02:30am 14.4 9.8 1.3 41 5.7 E 15 20 8 11 1025.8 1025.5 0.0
22/02:00am 14.9 9.9 1.4 40 5.9 ESE 17 22 9 12 1026.1 1025.9 0.0
22/01:30am 14.9 9.9 1.1 39 6.0 E 17 22 9 12 1026.4 1026.2 0.0
22/01:00am 15.0 10.8 1.5 40 5.9 ESE 13 19 7 10 1026.3 1026.1 0.0
22/12:30am 14.6 10.5 2.2 43 5.5 E 13 15 7 8 1026.4 1026.2 0.0
22/12:00am 13.4 10.1 2.3 47 4.9 E 9 13 5 7 1026.5 1026.3 0.0
 
Date/Time
EST
Temp
°C
App
Temp
°C
Dew
Point
Rel
Hum
%
Delta-T
°C
Wind Press
QNH
hPa
Press
MSL
hPa
Rain
since 9 am
mm
Dir
 
Spd
km/h
Gust
km/h
Spd
kts
Gust
kts
21/11:30pm 12.6 9.1 1.3 46 4.9 E 9 11 5 6 1026.5 1026.3 0.0
21/11:00pm 12.8 9.1 0.2 42 5.3 E 9 13 5 7 1026.6 1026.4 0.0
21/10:30pm 14.8 10.9 1.3 40 5.9 E 11 13 6 7 1026.8 1026.6 0.0
21/10:00pm 15.2 11.8 1.7 40 6.0 E 9 13 5 7 1026.7 1026.5 0.0
21/09:30pm 15.6 12.1 1.3 38 6.3 ENE 9 11 5 6 1026.7 1026.5 0.0
21/09:00pm 16.3 12.5 1.6 37 6.5 E 11 15 6 8 1026.5 1026.3 0.0
21/08:30pm 17.0 12.8 1.4 35 7.0 E 13 15 7 8 1026.3 1026.1 0.0
21/08:00pm 17.4 13.5 1.4 34 7.2 E 11 13 6 7 1025.9 1025.6 0.0
21/07:30pm 18.0 14.4 0.6 31 7.7 E 9 11 5 6 1025.7 1025.4 0.0
21/07:00pm 19.7 15.7 0.7 28 8.5 E 11 17 6 9 1025.4 1025.1 0.0
21/06:30pm 20.9 16.6 0.7 26 9.2 E 13 17 7 9 1024.9 1024.6 0.0
21/06:00pm 21.9 17.2 1.0 25 9.6 E 15 22 8 12 1024.5 1024.2 0.0
21/05:30pm 22.7 18.0 1.1 24 10.1 E 15 26 8 14 1024.0 1023.8 0.0
21/05:00pm 23.2 17.7 0.3 22 10.5 E 19 26 10 14 1023.6 1023.4 0.0
21/04:30pm 23.3 18.1 -0.2 21 10.7 SE 17 26 9 14 1023.5 1023.3 0.0
21/04:00pm 23.8 18.3 0.8 22 10.7 S 19 28 10 15 1023.5 1023.3 0.0
21/03:30pm 23.9 18.7 0.3 21 10.9 ESE 17 22 9 12 1023.5 1023.3 0.0
21/03:00pm 23.6 17.9 0.7 22 10.6 S 20 30 11 16 1023.7 1023.5 0.0
21/02:30pm 23.7 19.3 0.1 21 10.9 ESE 13 22 7 12 1024.1 1023.9 0.0
21/02:00pm 23.0 18.0 1.4 24 10.1 ESE 17 28 9 15 1024.7 1024.4 0.0
21/01:30pm 22.8 17.5 1.8 25 9.9 E 19 22 10 12 1025.1 1024.8 0.0
21/01:00pm 22.2 17.2 1.3 25 9.7 SSE 17 26 9 14 1025.7 1025.4 0.0
21/12:30pm 21.7 18.0 2.4 28 9.2 E 11 19 6 10 1026.1 1025.9 0.0
21/12:00pm 21.5 18.4 3.7 31 8.6 ENE 9 19 5 10 1026.6 1026.4 0.0
21/11:30am 21.1 17.4 4.6 34 8.1 ENE 13 20 7 11 1027.2 1027.0 0.0
21/11:00am 20.7 15.8 4.3 34 8.0 NNE 19 28 10 15 1027.4 1027.2 0.0
21/10:30am 19.9 14.9 4.4 36 7.5 NE 20 32 11 17 1027.6 1027.4 0.0
21/10:00am 18.5 12.8 5.0 41 6.5 NE 24 32 13 17 1027.8 1027.6 0.0
21/09:30am 18.1 12.4 5.0 42 6.4 E 24 30 13 16 1027.8 1027.6 0.0
21/09:00am 16.4 11.8 3.5 42 6.0 E 17 26 9 14 1027.8 1027.6 0.0
21/08:30am 14.9 9.8 3.1 45 5.4 E 19 26 10 14 1027.7 1027.5 0.0
21/08:00am 13.4 8.1 3.2 50 4.6 E 20 26 11 14 1027.4 1027.2 0.0
21/07:30am 12.1 7.4 3.1 54 4.0 ESE 17 26 9 14 1026.8 1026.6 0.0
21/07:22am 11.8 8.3 3.6 57 3.7 ESE 11 17 6 9 1026.8 1026.6 0.0
21/07:00am 6.8 4.3 -1.3 56 3.1 SE 2 7 1 4 1026.9 1026.7 0.0
21/06:30am 5.0 1.7 -1.4 63 2.4 SSE 6 7 3 4 1026.6 1026.4 0.0
21/06:00am 3.4 -0.1 -3.0 63 2.2 ESE 6 7 3 4 1026.1 1025.9 0.0
21/05:30am 3.5 -0.7 -3.5 60 2.4 SSE 9 9 5 5 1025.7 1025.4 0.0
21/05:00am 4.6 2.2 -3.2 57 2.7 CALM 0 2 0 1 1025.3 1025.0 0.0
21/04:30am 6.0 2.0 -2.3 55 3.1 SSE 9 11 5 6 1025.1 1024.8 0.0
21/04:00am 7.4 3.8 -2.1 51 3.6 SE 7 9 4 5 1025.0 1024.7 0.0
21/03:30am 7.8 3.5 -2.0 50 3.7 SSE 11 13 6 7 1024.7 1024.4 0.0
21/03:00am 8.8 4.1 -1.9 47 4.1 SSE 13 17 7 9 1024.6 1024.3 0.0
21/02:30am 9.1 4.4 -1.6 47 4.2 SSE 13 17 7 9 1024.8 1024.5 0.0
21/02:00am 9.5 4.8 -1.5 46 4.3 SSE 13 15 7 8 1025.0 1024.7 0.0
21/01:30am 9.7 5.4 -1.6 45 4.4 SSE 11 15 6 8 1025.3 1025.0 0.0
21/01:00am 11.1 5.8 -0.7 44 4.7 S 17 20 9 11 1025.3 1025.0 0.0
21/12:56am 11.0 5.8 -0.2 46 4.6 S 17 20 9 11 1025.3 1025.0 0.0
21/12:30am 6.0 2.3 -2.8 53 3.2 SSE 7 13 4 7 1025.6 1025.3 0.0
21/12:00am 7.0 4.7 -2.4 51 3.5 CALM 0 0 0 0 1025.7 1025.4 0.0
 
Date/Time
EST
Temp
°C
App
Temp
°C
Dew
Point
Rel
Hum
%
Delta-T
°C
Wind Press
QNH
hPa
Press
MSL
hPa
Rain
since 9 am
mm
Dir
 
Spd
km/h
Gust
km/h
Spd
kts
Gust
kts
20/11:30pm 7.9 5.6 -2.1 49 3.8 CALM 0 0 0 0 1025.7 1025.4 0.0
20/11:00pm 7.8 5.3 -3.7 44 4.2 CALM 0 0 0 0 1025.5 1025.2 0.0
20/10:30pm 9.5 7.2 -2.4 43 4.6 CALM 0 0 0 0 1025.4 1025.1 0.0
20/10:00pm 10.9 7.2 -2.8 38 5.2 SE 7 9 4 5 1025.3 1025.0 0.0
20/09:30pm 13.2 9.6 -1.9 35 6.1 SSE 7 9 4 5 1025.1 1024.8 0.0
20/09:00pm 13.7 9.4 -1.9 34 6.3 S 11 13 6 7 1024.9 1024.6 0.0
20/08:30pm 14.7 10.0 -1.8 32 6.8 S 13 15 7 8 1024.7 1024.4 0.0
20/08:00pm 15.0 9.9 -2.0 31 6.9 S 15 17 8 9 1024.5 1024.2 0.0
20/07:30pm 14.8 10.4 -2.6 30 7.0 S 11 13 6 7 1024.2 1024.0 0.0
20/07:00pm 16.1 12.0 -2.9 27 7.7 S 9 11 5 6 1024.0 1023.8 0.0
20/06:30pm 17.7 13.2 -3.1 24 8.5 S 11 15 6 8 1023.7 1023.5 0.0
20/06:00pm 19.5 14.3 -2.8 22 9.3 S 15 20 8 11 1023.3 1023.1 0.0
20/05:30pm 20.2 13.9 -4.1 19 10.0 S 20 24 11 13 1023.0 1022.8 0.0
20/05:00pm 20.8 15.1 -3.6 19 10.2 SSE 17 20 9 11 1022.7 1022.5 0.0
20/04:30pm 20.8 14.6 -3.0 20 10.1 S 20 30 11 16 1022.6 1022.4 0.0
20/04:00pm 20.9 15.2 -3.6 19 10.2 S 17 24 9 13 1022.4 1022.2 0.0
20/03:30pm 20.6 14.3 -6.1 16 10.6 S 19 30 10 16 1022.4 1022.2 0.0
20/03:00pm 20.7 14.6 -3.7 19 10.1 SSW 19 32 10 17 1022.3 1022.1 0.0
20/02:30pm 20.7 14.7 -1.8 22 9.8 SSW 20 30 11 16 1022.5 1022.3 0.0
20/02:00pm 20.0 13.7 -3.6 20 9.8 S 20 28 11 15 1022.9 1022.7 0.0
20/01:30pm 19.7 13.9 -1.4 24 9.1 S 19 28 10 15 1023.3 1023.1 0.0
20/01:00pm 19.3 13.9 -1.2 25 8.8 SSW 17 20 9 11 1023.7 1023.5 0.0
20/12:30pm 19.3 14.7 -0.7 26 8.8 S 13 20 7 11 1024.2 1024.0 0.0
20/12:00pm 18.4 13.8 -0.9 27 8.3 SSE 13 26 7 14 1024.6 1024.3 0.0
20/11:30am 17.6 13.5 -0.2 30 7.8 S 11 24 6 13 1025.0 1024.7 0.0
20/11:00am 17.5 11.3 -0.2 30 7.7 S 22 32 12 17 1025.2 1024.9 0.0
20/10:30am 16.4 12.7 0.1 33 7.1 ESE 9 15 5 8 1025.3 1025.0 0.0
20/10:00am 15.5 10.0 0.5 36 6.5 S 19 26 10 14 1025.5 1025.2 0.0
20/09:30am 15.0 9.4 0.1 36 6.4 SSE 19 28 10 15 1025.6 1025.3 0.0
20/09:00am 14.3 8.7 0.2 38 6.0 SE 19 24 10 13 1025.8 1025.5 0.0
20/08:30am 13.2 7.7 0.6 42 5.4 SSE 19 22 10 12 1025.7 1025.4 0.0
20/08:00am 10.3 8.4 0.3 50 4.1 CALM 0 6 0 3 1025.6 1025.3 0.0
20/07:30am 6.3 4.1 -1.3 58 2.9 CALM 0 0 0 0 1025.3 1025.0 0.0
20/07:00am 3.5 1.1 -2.9 63 2.2 CALM 0 0 0 0 1025.2 1024.9 0.0
20/06:30am 0.2 -2.4 -4.8 69 1.6 CALM 0 0 0 0 1024.7 1024.4 0.0
20/06:00am 0.5 -2.1 -4.5 69 1.7 CALM 0 0 0 0 1024.2 1024.0 0.0
20/05:30am 0.9 -1.6 -4.3 68 1.8 CALM 0 0 0 0 1023.8 1023.6 0.0
20/05:00am 1.0 -1.9 -4.0 69 1.7 ESE 2 7 1 4 1023.3 1023.1 0.0
20/04:30am 2.1 -2.0 -2.8 70 1.7 SE 9 11 5 6 1022.8 1022.6 0.0
20/04:00am 1.4 -1.8 -3.5 70 1.7 SSE 4 6 2 3 1022.8 1022.6 0.0
20/03:30am 1.4 -1.8 -3.8 68 1.8 SSE 4 7 2 4 1022.8 1022.6 0.0
20/03:00am 1.9 -1.8 -3.2 69 1.7 SE 7 7 4 4 1022.6 1022.4 0.0
20/02:30am 2.1 -0.7 -3.2 68 1.8 SE 2 7 1 4 1022.7 1022.5 0.0
20/02:00am 2.4 0.0 -3.1 67 1.9 CALM 0 0 0 0 1023.0 1022.8 0.0
20/01:30am 2.4 -0.1 -4.1 62 2.2 CALM 0 0 0 0 1023.3 1023.1 0.0
20/01:00am 3.4 1.1 -2.7 64 2.1 CALM 0 0 0 0 1023.4 1023.2 0.0
20/12:30am 3.3 0.9 -3.3 62 2.3 CALM 0 0 0 0 1023.4 1023.2 0.0
20/12:00am 4.5 2.2 -2.6 60 2.5 CALM 0 0 0 0 1023.4 1023.2 0.0
 
Date/Time
EST
Temp
°C
App
Temp
°C
Dew
Point
Rel
Hum
%
Delta-T
°C
Wind Press
QNH
hPa
Press
MSL
hPa
Rain
since 9 am
mm
Dir
 
Spd
km/h
Gust
km/h
Spd
kts
Gust
kts
19/11:30pm 5.1 2.8 -2.7 57 2.8 CALM 0 0 0 0 1023.5 1023.3 0.0
19/11:00pm 5.7 3.4 -2.6 55 3.0 CALM 0 0 0 0 1023.6 1023.4 0.0
19/10:30pm 6.5 2.8 -2.9 51 3.4 SE 7 7 4 4 1023.6 1023.4 0.0
19/10:00pm 8.5 4.5 -1.9 48 4.0 SE 9 9 5 5 1023.7 1023.5 0.0
19/09:30pm 8.9 5.3 -1.8 47 4.1 S 7 11 4 6 1023.6 1023.4 0.0
19/09:00pm 7.6 4.9 -2.4 49 3.7 ENE 2 7 1 4 1023.7 1023.5 0.0
19/08:30pm 8.5 6.2 -2.4 46 4.1 CALM 0 0 0 0 1023.3 1023.1 0.0
19/08:00pm 9.8 6.4 -2.2 43 4.6 ENE 6 7 3 4 1023.2 1023.0 0.0

Other Formats:

Comma delimited format used in spreadsheet applications
http://www.bom.gov.au/fwo/IDN60801/IDN60801.94710.axf

JavaScript Object Notation format (JSON) in row-major order
http://www.bom.gov.au/fwo/IDN60801/IDN60801.94710.json